Latest Weather Observations for Hay Airport

IDN60801

Issued at 9:32 am EDT Tuesday 31 March 2015 (issued every 30 minutes, with the page automatically refreshed every 10 minutes)

About weather observations | Map of weather stations | Latest weather observations for NSW | Other Formats
Station Details ID: 075019 Name: HAY AIRPORT AWS Lat: -34.54 Lon: 144.83 Height: 92.0 m
Data from the previous 72 hours. | See also: Recent months for locations in New South Wales
Date/Time
EDT
Temp
°C
App
Temp
°C
Dew
Point
Rel
Hum
%
Delta-T
°C
Wind Press
QNH
hPa
Press
MSL
hPa
Rain
since 9 am
mm
Dir
 
Spd
km/h
Gust
km/h
Spd
kts
Gust
kts
31/09:30am 20.3 16.6 2.6 31 8.2 ESE 11 19 6 10 1025.3 1025.0 0.0
31/09:00am 17.9 14.6 2.6 36 7.0 ESE 9 13 5 7 1024.8 1024.5 0.0
31/08:30am 15.1 11.7 1.6 40 5.9 ESE 9 11 5 6 1024.7 1024.4 0.0
31/08:00am 12.8 9.3 1.2 45 4.9 E 9 11 5 6 1024.4 1024.1 0.0
31/07:30am 12.2 8.2 0.6 45 4.9 ESE 11 11 6 6 1024.1 1023.8 0.0
31/07:00am 12.6 8.6 0.4 43 5.1 SE 11 13 6 7 1023.8 1023.4 0.0
31/06:30am 12.6 8.3 1.0 45 4.9 SSE 13 17 7 9 1023.6 1023.2 0.0
31/06:00am 12.7 9.3 1.7 47 4.7 ESE 9 11 5 6 1023.2 1022.8 0.0
31/05:30am 12.2 8.6 0.3 44 4.9 ESE 9 11 5 6 1023.0 1022.6 0.0
31/05:00am 12.6 9.0 0.4 43 5.1 ESE 9 9 5 5 1023.0 1022.6 0.0
31/04:30am 13.3 9.7 0.3 41 5.5 ESE 9 9 5 5 1023.0 1022.6 0.0
31/04:00am 13.6 9.9 -0.1 39 5.7 E 9 13 5 7 1023.2 1022.8 0.0
31/03:30am 14.0 9.6 0.3 39 5.8 ESE 13 15 7 8 1023.5 1023.1 0.0
31/03:00am 12.9 9.0 -1.4 37 5.7 ESE 9 11 5 6 1023.4 1023.0 0.0
31/02:30am 13.3 9.9 -0.7 38 5.8 ESE 7 9 4 5 1023.4 1023.0 0.0
31/02:00am 13.9 10.4 -1.3 35 6.2 E 7 9 4 5 1023.5 1023.1 0.0
31/01:30am 15.3 12.0 0.3 36 6.4 E 7 7 4 4 1023.6 1023.2 0.0
31/01:00am 15.8 13.3 -0.8 32 6.9 ESE 2 6 1 3 1023.7 1023.3 0.0
31/12:30am 17.8 14.2 0.5 31 7.6 SE 9 13 5 7 1023.7 1023.3 0.0
 
Date/Time
EDT
Temp
°C
App
Temp
°C
Dew
Point
Rel
Hum
%
Delta-T
°C
Wind Press
QNH
hPa
Press
MSL
hPa
Rain
since 9 am
mm
Dir
 
Spd
km/h
Gust
km/h
Spd
kts
Gust
kts
30/11:30pm 16.6 14.7 0.7 34 6.9 CALM 0 0 0 0 1023.8 1023.4 0.0
30/11:00pm 16.7 14.6 -0.9 30 7.4 CALM 0 0 0 0 1023.8 1023.4 0.0
30/10:30pm 17.5 15.6 0.6 32 7.4 CALM 0 0 0 0 1023.7 1023.3 0.0
30/10:00pm 18.2 16.3 0.8 31 7.7 CALM 0 0 0 0 1023.6 1023.2 0.0
30/09:30pm 18.4 16.5 0.5 30 7.9 CALM 0 0 0 0 1023.5 1023.1 0.0
30/09:00pm 20.6 19.1 2.9 31 8.3 CALM 0 0 0 0 1023.2 1022.8 0.0
30/08:30pm 21.3 19.5 1.0 26 9.2 CALM 0 0 0 0 1023.1 1022.7 0.0
30/08:00pm 22.8 21.0 1.2 24 10.0 CALM 0 0 0 0 1022.9 1022.5 0.0
30/07:30pm 25.0 23.3 1.8 22 11.0 CALM 0 0 0 0 1022.4 1022.1 0.0
30/07:00pm 26.8 23.8 2.0 20 12.0 SSW 7 13 4 7 1022.3 1022.0 0.0
30/06:30pm 27.9 24.6 2.2 19 12.6 SSW 9 13 5 7 1022.1 1021.8 0.0
30/06:00pm 28.3 24.5 1.7 18 12.9 SSW 11 19 6 10 1021.9 1021.6 0.0
30/05:30pm 28.2 25.5 2.4 19 12.7 SSE 6 17 3 9 1021.7 1021.4 0.0
30/05:00pm 28.3 25.4 2.5 19 12.7 SW 7 15 4 8 1021.5 1021.2 0.0
30/04:30pm 28.5 25.6 2.7 19 12.8 WSW 7 17 4 9 1021.5 1021.2 0.0
30/04:00pm 28.1 25.5 3.0 20 12.5 N 6 17 3 9 1021.7 1021.4 0.0
30/03:30pm 28.0 24.8 3.0 20 12.5 S 9 15 5 8 1021.9 1021.6 0.0
30/03:00pm 28.5 24.6 3.4 20 12.6 NNW 13 30 7 16 1022.1 1021.8 0.0
30/02:30pm 27.3 24.8 3.7 22 11.9 SSE 6 19 3 10 1022.3 1022.0 0.0
30/02:00pm 26.7 23.7 3.9 23 11.4 N 9 17 5 9 1022.9 1022.5 0.0
30/01:30pm 26.9 24.3 4.0 23 11.5 NNE 7 13 4 7 1023.3 1022.9 0.0
30/01:00pm 26.3 23.9 4.1 24 11.1 ENE 6 17 3 9 1023.8 1023.4 0.0
30/12:30pm 26.1 23.2 4.6 25 10.9 NE 9 19 5 10 1024.1 1023.8 0.0
30/12:00pm 26.0 24.1 5.0 26 10.7 ENE 4 13 2 7 1024.5 1024.2 0.0
30/11:30am 25.6 23.8 5.2 27 10.4 ENE 4 13 2 7 1024.9 1024.6 0.0
30/11:00am 24.5 21.7 5.3 29 9.7 N 9 15 5 8 1025.0 1024.7 0.0
30/10:30am 24.3 22.5 5.6 30 9.5 NNE 4 9 2 5 1025.0 1024.7 0.0
30/10:00am 22.9 21.3 6.2 34 8.5 NW 4 7 2 4 1024.8 1024.5 0.0
30/09:30am 21.3 18.9 7.2 40 7.3 N 9 13 5 7 1024.6 1024.3 0.0
30/09:00am 20.9 18.9 6.1 38 7.4 NNE 6 11 3 6 1024.3 1024.0 0.0
30/08:30am 17.9 17.1 6.7 48 5.6 CALM 0 0 0 0 1024.0 1023.7 0.0
30/08:00am 15.6 14.4 6.6 55 4.4 WSW 2 9 1 5 1023.8 1023.4 0.0
30/07:30am 16.2 14.2 6.3 52 4.8 N 6 7 3 4 1023.4 1023.0 0.0
30/07:00am 16.1 14.4 6.0 51 4.9 N 4 9 2 5 1023.0 1022.6 0.0
30/06:30am 16.1 15.1 5.4 49 5.1 CALM 0 0 0 0 1023.0 1022.6 0.0
30/06:00am 16.0 14.9 5.3 49 5.1 CALM 0 0 0 0 1022.7 1022.3 0.0
30/05:30am 15.7 14.3 5.6 51 4.9 N 2 7 1 4 1022.7 1022.3 0.0
30/05:00am 15.4 14.3 5.3 51 4.8 CALM 0 0 0 0 1022.4 1022.1 0.0
30/04:30am 15.4 14.2 4.8 49 5.0 CALM 0 0 0 0 1022.4 1022.1 0.0
30/04:00am 15.6 14.8 6.3 54 4.5 CALM 0 0 0 0 1022.3 1022.0 0.0
30/03:30am 15.4 14.5 5.9 53 4.6 CALM 0 0 0 0 1022.3 1022.0 0.0
30/03:00am 15.3 14.4 6.1 54 4.4 CALM 0 0 0 0 1022.4 1022.1 0.0
30/02:30am 15.5 14.5 5.4 51 4.8 CALM 0 0 0 0 1022.7 1022.3 0.0
30/02:00am 16.0 14.8 4.4 46 5.4 CALM 0 0 0 0 1022.7 1022.3 0.0
30/01:30am 16.6 15.7 5.9 49 5.2 CALM 0 0 0 0 1022.6 1022.2 0.0
30/01:00am 16.5 15.7 6.6 52 4.9 CALM 0 0 0 0 1022.7 1022.3 0.0
30/12:30am 16.8 16.1 6.9 52 4.9 CALM 0 0 0 0 1022.9 1022.5 0.0
30/12:00am 17.0 16.2 6.5 50 5.2 CALM 0 0 0 0 1023.2 1022.8 0.0
 
Date/Time
EDT
Temp
°C
App
Temp
°C
Dew
Point
Rel
Hum
%
Delta-T
°C
Wind Press
QNH
hPa
Press
MSL
hPa
Rain
since 9 am
mm
Dir
 
Spd
km/h
Gust
km/h
Spd
kts
Gust
kts
29/11:30pm 16.9 16.1 6.7 51 5.1 CALM 0 0 0 0 1023.2 1022.8 0.0
29/11:00pm 17.2 16.4 6.4 49 5.3 CALM 0 0 0 0 1023.5 1023.1 0.0
29/10:30pm 17.3 16.2 4.9 44 5.9 CALM 0 0 0 0 1023.4 1023.0 0.0
29/10:00pm 18.2 17.2 5.8 44 6.1 CALM 0 0 0 0 1023.3 1022.9 0.0
29/09:30pm 18.2 17.2 5.4 43 6.2 CALM 0 0 0 0 1023.2 1022.8 0.0
29/09:00pm 19.1 17.9 4.5 38 7.0 CALM 0 0 0 0 1022.9 1022.5 0.0
29/08:30pm 19.6 18.3 4.1 36 7.4 CALM 0 0 0 0 1022.4 1022.1 0.0
29/08:00pm 21.0 20.0 5.4 36 7.7 CALM 0 0 0 0 1022.3 1022.0 0.0
29/07:30pm 22.2 21.1 5.2 33 8.5 CALM 0 0 0 0 1022.2 1021.9 0.0
29/07:00pm 23.1 22.1 5.5 32 8.9 CALM 0 0 0 0 1021.9 1021.6 0.0
29/06:30pm 23.5 22.5 5.4 31 9.1 CALM 0 0 0 0 1021.6 1021.3 0.0
29/06:00pm 23.8 22.4 5.7 31 9.2 NW 2 7 1 4 1021.4 1021.1 0.0
29/05:30pm 23.7 21.6 5.6 31 9.2 NNW 6 11 3 6 1021.3 1021.0 0.0
29/05:00pm 23.9 22.2 5.8 31 9.2 NNW 4 13 2 7 1021.4 1021.1 0.0
29/04:30pm 24.5 21.5 5.8 30 9.6 NNW 11 17 6 9 1021.4 1021.1 0.0
29/04:00pm 24.4 22.0 5.2 29 9.7 W 7 13 4 7 1021.8 1021.5 0.0
29/03:30pm 24.3 22.2 5.6 30 9.5 WSW 6 15 3 8 1022.0 1021.7 0.0
29/03:00pm 23.9 21.2 5.8 31 9.2 S 9 13 5 7 1022.1 1021.8 0.0
29/02:30pm 23.7 21.6 6.0 32 9.1 NW 6 13 3 7 1022.9 1022.5 0.0
29/02:00pm 23.5 21.2 5.9 32 8.9 NW 7 11 4 6 1023.0 1022.6 0.0
29/01:30pm 23.5 21.9 6.3 33 8.8 SE 4 13 2 7 1023.5 1023.1 0.0
29/01:00pm 24.0 22.4 6.3 32 9.1 ESE 4 17 2 9 1023.7 1023.3 0.0
29/12:30pm 23.0 20.0 5.9 33 8.7 S 11 19 6 10 1024.2 1023.9 0.0
29/12:00pm 22.5 19.9 5.9 34 8.4 SSW 9 19 5 10 1024.4 1024.1 0.0
29/11:30am 22.6 20.2 6.8 36 8.1 SE 9 13 5 7 1024.3 1024.0 0.0
29/11:00am 20.3 18.1 6.3 40 7.0 SE 7 11 4 6 1024.3 1024.0 0.0
29/10:30am 18.5 16.8 6.0 44 6.2 SE 4 9 2 5 1024.4 1024.1 0.0
29/10:00am 17.4 15.3 6.0 47 5.6 ESE 6 7 3 4 1024.3 1024.0 0.0
29/09:30am 16.4 14.7 5.7 49 5.2 E 4 7 2 4 1024.0 1023.7 0.0
29/09:00am 16.0 14.4 6.2 52 4.8 ESE 4 7 2 4 1023.5 1023.1 0.0
29/08:30am 14.8 13.5 5.9 55 4.3 ENE 2 6 1 3 1023.1 1022.7 0.0
29/08:00am 13.5 10.6 4.9 56 4.0 ESE 9 9 5 5 1022.6 1022.2 0.0
29/07:30am 12.4 9.9 3.6 55 3.9 ESE 6 7 3 4 1022.4 1022.1 0.0
29/07:00am 12.0 10.6 3.3 55 3.8 CALM 0 0 0 0 1022.2 1021.9 0.0
29/06:30am 12.1 10.5 2.6 52 4.2 CALM 0 0 0 0 1021.9 1021.6 0.0
29/06:00am 12.1 10.7 3.3 55 3.9 CALM 0 0 0 0 1021.6 1021.3 0.0
29/05:30am 12.5 11.2 4.0 56 3.8 CALM 0 0 0 0 1021.6 1021.3 0.0
29/05:00am 12.4 11.0 3.6 55 3.9 CALM 0 0 0 0 1021.4 1021.1 0.0
29/04:30am 12.9 11.5 3.6 53 4.2 CALM 0 0 0 0 1021.4 1021.1 0.0
29/04:00am 13.1 11.6 2.9 50 4.5 CALM 0 0 0 0 1021.0 1020.7 0.0
29/03:30am 12.3 10.7 2.7 52 4.2 CALM 0 0 0 0 1021.3 1021.0 0.0
29/03:00am 12.6 11.2 3.3 53 4.1 CALM 0 0 0 0 1021.5 1021.2 0.0
29/02:30am 13.3 12.0 4.2 54 4.2 CALM 0 0 0 0 1021.6 1021.3 0.0
29/02:00am 13.6 12.4 4.5 54 4.2 CALM 0 0 0 0 1021.8 1021.5 0.0
29/01:30am 13.8 12.4 3.6 50 4.6 CALM 0 0 0 0 1021.9 1021.6 0.0
29/01:00am 13.9 12.4 3.1 48 4.8 CALM 0 0 0 0 1022.1 1021.8 0.0
29/12:30am 14.7 13.0 3.8 48 5.0 SSW 2 6 1 3 1022.3 1022.0 0.0
29/12:00am 14.9 12.4 4.0 48 5.0 SSW 6 7 3 4 1022.4 1022.1 0.0
 
Date/Time
EDT
Temp
°C
App
Temp
°C
Dew
Point
Rel
Hum
%
Delta-T
°C
Wind Press
QNH
hPa
Press
MSL
hPa
Rain
since 9 am
mm
Dir
 
Spd
km/h
Gust
km/h
Spd
kts
Gust
kts
28/11:30pm 15.1 13.1 4.5 49 5.0 WSW 4 6 2 3 1022.7 1022.3 0.0
28/11:00pm 15.8 14.6 4.5 47 5.3 CALM 0 0 0 0 1022.8 1022.4 0.0
28/10:30pm 15.7 14.3 3.8 45 5.5 CALM 0 0 0 0 1022.6 1022.2 0.0
28/10:00pm 17.1 14.4 3.8 41 6.2 WSW 7 9 4 5 1022.6 1022.2 0.0
28/09:30pm 17.5 16.2 4.1 41 6.3 CALM 0 0 0 0 1022.3 1022.0 0.0
28/09:00pm 17.8 16.6 4.4 41 6.4 CALM 0 0 0 0 1022.1 1021.8 0.0
28/08:30pm 19.2 16.8 4.2 37 7.2 W 6 7 3 4 1021.9 1021.6 0.0
28/08:00pm 19.7 18.0 4.2 36 7.4 SW 2 7 1 4 1021.7 1021.4 0.0
28/07:30pm 20.4 17.9 4.8 36 7.6 SW 7 9 4 5 1021.7 1021.4 0.0
28/07:00pm 21.4 18.6 5.3 35 8.0 W 9 13 5 7 1021.7 1021.4 0.0
28/06:30pm 21.7 18.8 4.7 33 8.4 WSW 9 13 5 7 1021.6 1021.3 0.0
28/06:00pm 22.4 18.4 4.9 32 8.7 SW 15 20 8 11 1021.5 1021.2 0.0
28/05:30pm 22.4 19.3 5.4 33 8.5 WSW 11 19 6 10 1021.5 1021.2 0.0
28/05:00pm 22.8 19.6 5.3 32 8.8 W 11 17 6 9 1021.7 1021.4 0.0
28/04:30pm 22.7 19.5 5.2 32 8.8 SSW 11 19 6 10 1021.8 1021.5 0.0
28/04:00pm 22.5 19.0 5.4 33 8.6 SW 13 20 7 11 1022.1 1021.8 0.0
28/03:30pm 22.7 19.2 5.6 33 8.6 SW 13 22 7 12 1022.2 1021.9 0.0
28/03:00pm 22.3 20.0 5.7 34 8.3 S 7 26 4 14 1022.8 1022.4 0.0
28/02:30pm 21.1 17.5 5.1 35 7.9 S 13 20 7 11 1023.2 1022.8 0.0
28/02:00pm 21.1 18.1 5.9 37 7.6 WSW 11 19 6 10 1023.8 1023.4 0.0
28/01:30pm 20.3 16.3 5.1 37 7.5 SW 15 22 8 12 1024.1 1023.8 0.0
28/01:00pm 20.3 16.9 5.9 39 7.2 SSW 13 24 7 13 1024.5 1024.2 0.0
28/12:30pm 19.2 16.2 6.0 42 6.6 SW 11 20 6 11 1025.0 1024.7 0.0
28/12:00pm 18.2 14.6 5.1 42 6.3 SSW 13 24 7 13 1025.5 1025.2 0.0
28/11:30am 18.2 14.6 5.1 42 6.3 S 13 17 7 9 1025.7 1025.4 0.0
28/11:00am 17.9 15.0 4.8 42 6.3 SSE 9 19 5 10 1026.0 1025.7 0.0
28/10:30am 16.4 12.5 5.4 48 5.3 S 15 20 8 11 1026.4 1026.1 0.0
28/10:00am 15.4 11.1 5.3 51 4.8 SSE 17 24 9 13 1026.3 1026.0 0.0

Other Formats:

Comma delimited format used in spreadsheet applications
http://www.bom.gov.au/fwo/IDN60801/IDN60801.94702.axf

JavaScript Object Notation format (JSON) in row-major order
http://www.bom.gov.au/fwo/IDN60801/IDN60801.94702.json